sensor_id;sensor_type;location;lat;lon;timestamp;pressure;altitude;pressure_sealevel;temperature;humidity
70250;BME280;57644;48.416;-123.374;2022-08-21T00:01:40;101304.80;;;11.46;73.93
70250;BME280;57644;48.416;-123.374;2022-08-21T00:04:13;101302.88;;;11.42;74.62
70250;BME280;57644;48.416;-123.374;2022-08-21T00:06:41;101300.53;;;11.47;74.14
70250;BME280;57644;48.416;-123.374;2022-08-21T00:09:11;101299.63;;;11.43;74.24
70250;BME280;57644;48.416;-123.374;2022-08-21T00:11:42;101300.37;;;11.43;74.40
70250;BME280;57644;48.416;-123.374;2022-08-21T00:14:13;101304.18;;;11.33;75.39
70250;BME280;57644;48.416;-123.374;2022-08-21T00:16:42;101303.83;;;11.21;74.74
70250;BME280;57644;48.416;-123.374;2022-08-21T00:19:12;101302.70;;;11.25;74.19
70250;BME280;57644;48.416;-123.374;2022-08-21T00:21:43;101300.00;;;11.17;74.27
70250;BME280;57644;48.416;-123.374;2022-08-21T00:24:13;101295.49;;;11.00;74.47
70250;BME280;57644;48.416;-123.374;2022-08-21T00:26:43;101291.37;;;10.92;74.50
70250;BME280;57644;48.416;-123.374;2022-08-21T00:29:14;101288.31;;;10.89;74.81
70250;BME280;57644;48.416;-123.374;2022-08-21T00:31:44;101287.58;;;10.85;75.50
70250;BME280;57644;48.416;-123.374;2022-08-21T00:34:15;101285.24;;;10.91;75.61
70250;BME280;57644;48.416;-123.374;2022-08-21T00:36:44;101288.14;;;10.99;75.90
70250;BME280;57644;48.416;-123.374;2022-08-21T00:39:15;101284.08;;;11.03;75.72
70250;BME280;57644;48.416;-123.374;2022-08-21T00:41:45;101283.82;;;11.06;75.63
70250;BME280;57644;48.416;-123.374;2022-08-21T00:46:45;101275.65;;;11.14;74.44
70250;BME280;57644;48.416;-123.374;2022-08-21T00:49:17;101275.52;;;11.15;74.33
70250;BME280;57644;48.416;-123.374;2022-08-21T00:51:50;101273.30;;;11.21;73.91
70250;BME280;57644;48.416;-123.374;2022-08-21T00:54:17;101266.46;;;11.12;74.23
70250;BME280;57644;48.416;-123.374;2022-08-21T00:56:50;101262.76;;;11.10;74.30
70250;BME280;57644;48.416;-123.374;2022-08-21T00:59:19;101262.12;;;11.14;73.91
70250;BME280;57644;48.416;-123.374;2022-08-21T01:01:48;101257.08;;;10.93;73.44
70250;BME280;57644;48.416;-123.374;2022-08-21T01:04:18;101252.44;;;10.93;73.72
70250;BME280;57644;48.416;-123.374;2022-08-21T01:06:48;101251.39;;;10.83;73.89
70250;BME280;57644;48.416;-123.374;2022-08-21T01:09:20;101246.63;;;10.83;73.52
70250;BME280;57644;48.416;-123.374;2022-08-21T01:11:50;101246.10;;;10.78;73.72
70250;BME280;57644;48.416;-123.374;2022-08-21T01:14:21;101243.05;;;10.71;73.88
70250;BME280;57644;48.416;-123.374;2022-08-21T01:16:52;101240.40;;;10.67;74.59
70250;BME280;57644;48.416;-123.374;2022-08-21T01:19:22;101234.79;;;10.65;75.21
70250;BME280;57644;48.416;-123.374;2022-08-21T01:21:51;101230.69;;;10.64;75.18
70250;BME280;57644;48.416;-123.374;2022-08-21T01:24:27;101229.17;;;10.55;75.54
70250;BME280;57644;48.416;-123.374;2022-08-21T01:26:52;101224.24;;;10.56;75.75
70250;BME280;57644;48.416;-123.374;2022-08-21T01:29:30;101223.99;;;10.55;76.67
70250;BME280;57644;48.416;-123.374;2022-08-21T01:31:54;101216.20;;;10.60;77.07
70250;BME280;57644;48.416;-123.374;2022-08-21T01:34:24;101216.06;;;10.63;77.70
70250;BME280;57644;48.416;-123.374;2022-08-21T01:36:55;101213.78;;;10.71;78.00
70250;BME280;57644;48.416;-123.374;2022-08-21T01:39:26;101213.97;;;10.79;77.68
70250;BME280;57644;48.416;-123.374;2022-08-21T01:41:56;101216.00;;;10.86;77.83
70250;BME280;57644;48.416;-123.374;2022-08-21T01:44:26;101211.19;;;10.88;78.45
70250;BME280;57644;48.416;-123.374;2022-08-21T01:46:59;101203.75;;;10.99;78.25
70250;BME280;57644;48.416;-123.374;2022-08-21T01:49:28;101204.68;;;11.07;78.15
70250;BME280;57644;48.416;-123.374;2022-08-21T01:51:58;101204.36;;;11.16;78.16
70250;BME280;57644;48.416;-123.374;2022-08-21T01:54:29;101201.99;;;11.28;77.71
70250;BME280;57644;48.416;-123.374;2022-08-21T01:57:00;101201.84;;;11.37;78.20
70250;BME280;57644;48.416;-123.374;2022-08-21T01:59:30;101205.04;;;11.45;78.72
70250;BME280;57644;48.416;-123.374;2022-08-21T02:01:59;101203.90;;;11.57;78.30
70250;BME280;57644;48.416;-123.374;2022-08-21T02:04:30;101206.84;;;11.66;78.19
70250;BME280;57644;48.416;-123.374;2022-08-21T02:07:01;101206.27;;;11.70;77.89
70250;BME280;57644;48.416;-123.374;2022-08-21T02:09:31;101206.54;;;11.73;78.30
70250;BME280;57644;48.416;-123.374;2022-08-21T02:12:01;101204.67;;;11.76;78.03
70250;BME280;57644;48.416;-123.374;2022-08-21T02:14:36;101202.04;;;11.70;78.15
70250;BME280;57644;48.416;-123.374;2022-08-21T02:17:02;101200.66;;;11.68;78.09
70250;BME280;57644;48.416;-123.374;2022-08-21T02:19:32;101203.28;;;11.72;77.54
70250;BME280;57644;48.416;-123.374;2022-08-21T02:22:02;101199.79;;;11.69;77.25
70250;BME280;57644;48.416;-123.374;2022-08-21T02:24:38;101201.52;;;11.69;77.04
70250;BME280;57644;48.416;-123.374;2022-08-21T02:27:03;101201.59;;;11.72;76.81
70250;BME280;57644;48.416;-123.374;2022-08-21T02:29:33;101203.13;;;11.75;76.56
70250;BME280;57644;48.416;-123.374;2022-08-21T02:32:03;101205.29;;;11.73;76.57
70250;BME280;57644;48.416;-123.374;2022-08-21T02:34:34;101206.79;;;11.71;76.52
70250;BME280;57644;48.416;-123.374;2022-08-21T02:37:04;101205.16;;;11.65;76.83
70250;BME280;57644;48.416;-123.374;2022-08-21T02:39:35;101204.98;;;11.65;76.63
70250;BME280;57644;48.416;-123.374;2022-08-21T02:42:05;101205.65;;;11.69;76.60
70250;BME280;57644;48.416;-123.374;2022-08-21T02:44:36;101205.42;;;11.70;76.43
70250;BME280;57644;48.416;-123.374;2022-08-21T02:47:06;101203.96;;;11.68;76.54
70250;BME280;57644;48.416;-123.374;2022-08-21T02:49:36;101207.64;;;11.67;76.56
70250;BME280;57644;48.416;-123.374;2022-08-21T02:52:07;101208.46;;;11.61;77.21
70250;BME280;57644;48.416;-123.374;2022-08-21T02:54:40;101211.19;;;11.67;76.76
70250;BME280;57644;48.416;-123.374;2022-08-21T02:57:06;101215.47;;;11.61;76.93
70250;BME280;57644;48.416;-123.374;2022-08-21T02:59:37;101219.97;;;11.52;77.02
70250;BME280;57644;48.416;-123.374;2022-08-21T03:02:08;101219.39;;;11.56;77.10
70250;BME280;57644;48.416;-123.374;2022-08-21T03:04:38;101214.53;;;11.54;76.81
70250;BME280;57644;48.416;-123.374;2022-08-21T03:07:09;101214.46;;;11.48;76.68
70250;BME280;57644;48.416;-123.374;2022-08-21T03:09:39;101216.62;;;11.46;76.63
70250;BME280;57644;48.416;-123.374;2022-08-21T03:12:09;101217.91;;;11.41;76.56
70250;BME280;57644;48.416;-123.374;2022-08-21T03:14:40;101219.67;;;11.41;76.61
70250;BME280;57644;48.416;-123.374;2022-08-21T03:17:11;101222.45;;;11.34;76.96
70250;BME280;57644;48.416;-123.374;2022-08-21T03:19:41;101223.94;;;11.33;76.79
70250;BME280;57644;48.416;-123.374;2022-08-21T03:22:11;101226.10;;;11.31;76.87
70250;BME280;57644;48.416;-123.374;2022-08-21T03:24:43;101232.55;;;11.34;76.83
70250;BME280;57644;48.416;-123.374;2022-08-21T03:30:06;101233.78;;;11.19;77.25
70250;BME280;57644;48.416;-123.374;2022-08-21T03:32:13;101237.97;;;11.18;77.25
70250;BME280;57644;48.416;-123.374;2022-08-21T03:34:43;101237.90;;;11.18;77.20
70250;BME280;57644;48.416;-123.374;2022-08-21T03:37:17;101243.53;;;11.18;77.23
70250;BME280;57644;48.416;-123.374;2022-08-21T03:39:45;101245.20;;;11.18;77.41
70250;BME280;57644;48.416;-123.374;2022-08-21T03:42:14;101245.10;;;11.19;77.10
70250;BME280;57644;48.416;-123.374;2022-08-21T03:44:46;101245.67;;;11.19;76.89
70250;BME280;57644;48.416;-123.374;2022-08-21T03:47:15;101251.43;;;11.17;77.01
70250;BME280;57644;48.416;-123.374;2022-08-21T03:49:45;101256.17;;;11.17;76.99
70250;BME280;57644;48.416;-123.374;2022-08-21T03:52:16;101257.28;;;11.13;77.26
70250;BME280;57644;48.416;-123.374;2022-08-21T03:54:46;101261.69;;;11.11;77.20
70250;BME280;57644;48.416;-123.374;2022-08-21T03:57:16;101265.01;;;11.09;77.48
70250;BME280;57644;48.416;-123.374;2022-08-21T03:59:47;101270.66;;;11.06;77.52
70250;BME280;57644;48.416;-123.374;2022-08-21T04:02:21;101277.00;;;11.00;78.03
70250;BME280;57644;48.416;-123.374;2022-08-21T04:04:47;101279.04;;;11.00;78.16
70250;BME280;57644;48.416;-123.374;2022-08-21T04:07:18;101281.47;;;10.93;78.74
70250;BME280;57644;48.416;-123.374;2022-08-21T04:09:48;101283.07;;;10.95;78.65
70250;BME280;57644;48.416;-123.374;2022-08-21T04:12:18;101288.22;;;10.99;78.50
70250;BME280;57644;48.416;-123.374;2022-08-21T04:14:48;101289.75;;;10.97;78.31
70250;BME280;57644;48.416;-123.374;2022-08-21T04:17:19;101289.61;;;10.93;78.22
70250;BME280;57644;48.416;-123.374;2022-08-21T04:19:50;101293.82;;;10.89;78.32
70250;BME280;57644;48.416;-123.374;2022-08-21T04:22:21;101295.36;;;10.90;78.43
70250;BME280;57644;48.416;-123.374;2022-08-21T04:24:50;101298.21;;;10.84;78.82
70250;BME280;57644;48.416;-123.374;2022-08-21T04:27:20;101297.86;;;10.89;78.35
70250;BME280;57644;48.416;-123.374;2022-08-21T04:29:51;101296.07;;;10.89;78.13
70250;BME280;57644;48.416;-123.374;2022-08-21T04:32:23;101298.29;;;10.91;77.93
70250;BME280;57644;48.416;-123.374;2022-08-21T04:37:22;101304.06;;;10.88;77.69
70250;BME280;57644;48.416;-123.374;2022-08-21T04:39:52;101302.66;;;10.86;77.67
70250;BME280;57644;48.416;-123.374;2022-08-21T04:42:22;101303.95;;;10.86;77.65
70250;BME280;57644;48.416;-123.374;2022-08-21T04:47:23;101304.26;;;10.81;77.42
70250;BME280;57644;48.416;-123.374;2022-08-21T04:49:55;101305.87;;;10.75;77.57
70250;BME280;57644;48.416;-123.374;2022-08-21T04:52:25;101313.67;;;10.72;77.63
70250;BME280;57644;48.416;-123.374;2022-08-21T04:54:54;101311.41;;;10.61;77.97
70250;BME280;57644;48.416;-123.374;2022-08-21T04:57:25;101315.18;;;10.51;78.41
70250;BME280;57644;48.416;-123.374;2022-08-21T04:59:55;101321.07;;;10.50;78.36
70250;BME280;57644;48.416;-123.374;2022-08-21T05:02:25;101322.85;;;10.52;78.37
70250;BME280;57644;48.416;-123.374;2022-08-21T05:04:56;101324.78;;;10.52;78.53
70250;BME280;57644;48.416;-123.374;2022-08-21T05:07:28;101326.68;;;10.51;78.71
70250;BME280;57644;48.416;-123.374;2022-08-21T05:09:56;101332.56;;;10.42;79.05
70250;BME280;57644;48.416;-123.374;2022-08-21T05:12:27;101334.46;;;10.37;79.34
70250;BME280;57644;48.416;-123.374;2022-08-21T05:14:57;101341.70;;;10.32;79.34
70250;BME280;57644;48.416;-123.374;2022-08-21T05:17:27;101340.36;;;10.29;79.40
70250;BME280;57644;48.416;-123.374;2022-08-21T05:19:58;101342.93;;;10.25;79.74
70250;BME280;57644;48.416;-123.374;2022-08-21T05:22:28;101342.32;;;10.25;79.58
70250;BME280;57644;48.416;-123.374;2022-08-21T05:24:58;101344.26;;;10.26;79.39
70250;BME280;57644;48.416;-123.374;2022-08-21T05:27:28;101346.20;;;10.24;79.34
70250;BME280;57644;48.416;-123.374;2022-08-21T05:29:59;101343.30;;;10.20;79.50
70250;BME280;57644;48.416;-123.374;2022-08-21T05:32:29;101339.88;;;10.23;79.46
70250;BME280;57644;48.416;-123.374;2022-08-21T05:34:59;101335.93;;;10.22;79.77
70250;BME280;57644;48.416;-123.374;2022-08-21T05:37:30;101336.22;;;10.25;79.74
70250;BME280;57644;48.416;-123.374;2022-08-21T05:40:01;101336.50;;;10.27;79.91
70250;BME280;57644;48.416;-123.374;2022-08-21T05:42:30;101335.89;;;10.28;79.87
70250;BME280;57644;48.416;-123.374;2022-08-21T05:45:01;101332.21;;;10.30;79.85
70250;BME280;57644;48.416;-123.374;2022-08-21T05:47:31;101331.74;;;10.30;79.94
70250;BME280;57644;48.416;-123.374;2022-08-21T05:50:02;101337.03;;;10.35;79.71
70250;BME280;57644;48.416;-123.374;2022-08-21T05:52:32;101334.50;;;10.35;79.86
70250;BME280;57644;48.416;-123.374;2022-08-21T05:55:02;101334.75;;;10.32;80.07
70250;BME280;57644;48.416;-123.374;2022-08-21T05:57:32;101337.37;;;10.31;79.89
70250;BME280;57644;48.416;-123.374;2022-08-21T06:00:04;101339.27;;;10.28;79.85
70250;BME280;57644;48.416;-123.374;2022-08-21T06:02:33;101340.07;;;10.27;80.15
70250;BME280;57644;48.416;-123.374;2022-08-21T06:05:04;101337.04;;;10.25;80.11
70250;BME280;57644;48.416;-123.374;2022-08-21T06:07:33;101337.27;;;10.26;80.22
70250;BME280;57644;48.416;-123.374;2022-08-21T06:10:04;101336.01;;;10.24;80.86
70250;BME280;57644;48.416;-123.374;2022-08-21T06:12:34;101335.95;;;10.26;80.43
70250;BME280;57644;48.416;-123.374;2022-08-21T06:15:05;101336.18;;;10.26;80.44
70250;BME280;57644;48.416;-123.374;2022-08-21T06:17:35;101336.68;;;10.27;80.40
70250;BME280;57644;48.416;-123.374;2022-08-21T06:20:06;101339.71;;;10.28;80.47
70250;BME280;57644;48.416;-123.374;2022-08-21T06:22:35;101341.90;;;10.25;80.63
70250;BME280;57644;48.416;-123.374;2022-08-21T06:25:06;101346.09;;;10.26;80.66
70250;BME280;57644;48.416;-123.374;2022-08-21T06:27:36;101348.63;;;10.24;80.79
70250;BME280;57644;48.416;-123.374;2022-08-21T06:30:07;101347.93;;;10.26;80.50
70250;BME280;57644;48.416;-123.374;2022-08-21T06:32:37;101348.29;;;10.25;80.39
70250;BME280;57644;48.416;-123.374;2022-08-21T06:37:38;101345.78;;;10.28;80.25
70250;BME280;57644;48.416;-123.374;2022-08-21T06:40:09;101346.25;;;10.27;80.36
70250;BME280;57644;48.416;-123.374;2022-08-21T06:42:38;101350.41;;;10.27;80.33
70250;BME280;57644;48.416;-123.374;2022-08-21T06:45:09;101350.61;;;10.23;80.45
70250;BME280;57644;48.416;-123.374;2022-08-21T06:47:39;101350.27;;;10.20;80.81
70250;BME280;57644;48.416;-123.374;2022-08-21T06:50:10;101353.86;;;10.17;80.74
70250;BME280;57644;48.416;-123.374;2022-08-21T06:52:40;101353.67;;;10.18;80.78
70250;BME280;57644;48.416;-123.374;2022-08-21T06:55:11;101352.74;;;10.16;80.78
70250;BME280;57644;48.416;-123.374;2022-08-21T06:57:41;101355.84;;;10.16;80.80
70250;BME280;57644;48.416;-123.374;2022-08-21T07:00:12;101360.79;;;10.16;80.68
70250;BME280;57644;48.416;-123.374;2022-08-21T07:02:41;101361.29;;;10.16;80.48
70250;BME280;57644;48.416;-123.374;2022-08-21T07:05:12;101360.91;;;10.15;80.20
70250;BME280;57644;48.416;-123.374;2022-08-21T07:07:43;101357.94;;;10.09;80.32
70250;BME280;57644;48.416;-123.374;2022-08-21T07:10:13;101358.85;;;10.05;80.31
70250;BME280;57644;48.416;-123.374;2022-08-21T07:12:44;101363.16;;;10.02;80.19
70250;BME280;57644;48.416;-123.374;2022-08-21T07:15:13;101363.88;;;9.99;79.96
70250;BME280;57644;48.416;-123.374;2022-08-21T07:17:44;101363.81;;;9.97;80.44
70250;BME280;57644;48.416;-123.374;2022-08-21T07:20:14;101364.02;;;9.95;80.78
70250;BME280;57644;48.416;-123.374;2022-08-21T07:22:44;101362.65;;;9.94;80.83
70250;BME280;57644;48.416;-123.374;2022-08-21T07:25:15;101364.79;;;9.92;81.15
70250;BME280;57644;48.416;-123.374;2022-08-21T07:27:45;101366.55;;;9.92;80.79
70250;BME280;57644;48.416;-123.374;2022-08-21T07:30:15;101367.53;;;9.91;80.62
70250;BME280;57644;48.416;-123.374;2022-08-21T07:32:47;101366.63;;;9.86;80.89
70250;BME280;57644;48.416;-123.374;2022-08-21T07:35:16;101367.31;;;9.78;81.34
70250;BME280;57644;48.416;-123.374;2022-08-21T07:37:47;101368.97;;;9.75;81.66
70250;BME280;57644;48.416;-123.374;2022-08-21T07:40:17;101371.40;;;9.75;81.97
70250;BME280;57644;48.416;-123.374;2022-08-21T07:42:49;101372.44;;;9.75;82.09
70250;BME280;57644;48.416;-123.374;2022-08-21T07:45:18;101372.47;;;9.78;82.54
70250;BME280;57644;48.416;-123.374;2022-08-21T07:47:48;101377.58;;;9.79;82.24
70250;BME280;57644;48.416;-123.374;2022-08-21T07:50:19;101379.47;;;9.82;82.30
70250;BME280;57644;48.416;-123.374;2022-08-21T07:52:49;101383.88;;;9.85;82.40
70250;BME280;57644;48.416;-123.374;2022-08-21T07:55:21;101385.12;;;9.88;82.13
70250;BME280;57644;48.416;-123.374;2022-08-21T07:57:49;101387.58;;;9.89;81.97
70250;BME280;57644;48.416;-123.374;2022-08-21T08:00:22;101387.77;;;9.90;81.83
70250;BME280;57644;48.416;-123.374;2022-08-21T08:02:51;101391.81;;;9.91;81.60
70250;BME280;57644;48.416;-123.374;2022-08-21T08:05:22;101392.99;;;9.90;81.43
70250;BME280;57644;48.416;-123.374;2022-08-21T08:07:50;101398.57;;;9.85;81.42
70250;BME280;57644;48.416;-123.374;2022-08-21T08:10:21;101397.54;;;9.84;81.24
70250;BME280;57644;48.416;-123.374;2022-08-21T08:12:52;101395.15;;;9.77;81.31
70250;BME280;57644;48.416;-123.374;2022-08-21T08:15:24;101393.72;;;9.75;81.39
70250;BME280;57644;48.416;-123.374;2022-08-21T08:17:52;101393.17;;;9.75;81.56
70250;BME280;57644;48.416;-123.374;2022-08-21T08:20:23;101392.91;;;9.76;81.39
70250;BME280;57644;48.416;-123.374;2022-08-21T08:22:53;101391.82;;;9.73;81.70
70250;BME280;57644;48.416;-123.374;2022-08-21T08:25:24;101391.81;;;9.75;81.78
70250;BME280;57644;48.416;-123.374;2022-08-21T08:27:53;101390.67;;;9.77;81.75
70250;BME280;57644;48.416;-123.374;2022-08-21T08:30:23;101395.52;;;9.79;81.64
70250;BME280;57644;48.416;-123.374;2022-08-21T08:32:54;101399.14;;;9.79;81.57
70250;BME280;57644;48.416;-123.374;2022-08-21T08:35:24;101399.73;;;9.77;81.69
70250;BME280;57644;48.416;-123.374;2022-08-21T08:37:54;101397.09;;;9.78;81.77
70250;BME280;57644;48.416;-123.374;2022-08-21T08:40:31;101396.21;;;9.79;81.75
70250;BME280;57644;48.416;-123.374;2022-08-21T08:42:55;101397.33;;;9.77;81.88
70250;BME280;57644;48.416;-123.374;2022-08-21T08:45:26;101402.20;;;9.76;81.78
70250;BME280;57644;48.416;-123.374;2022-08-21T08:47:59;101402.95;;;9.77;81.57
70250;BME280;57644;48.416;-123.374;2022-08-21T08:50:33;101404.03;;;9.78;81.33
70250;BME280;57644;48.416;-123.374;2022-08-21T08:53:00;101399.23;;;9.78;81.13
70250;BME280;57644;48.416;-123.374;2022-08-21T08:55:33;101398.76;;;9.77;81.04
70250;BME280;57644;48.416;-123.374;2022-08-21T08:57:57;101399.53;;;9.74;81.14
70250;BME280;57644;48.416;-123.374;2022-08-21T09:00:27;101405.66;;;9.71;81.22
70250;BME280;57644;48.416;-123.374;2022-08-21T09:03:01;101408.88;;;9.73;81.13
70250;BME280;57644;48.416;-123.374;2022-08-21T09:05:30;101405.88;;;9.70;81.12
70250;BME280;57644;48.416;-123.374;2022-08-21T09:10:44;101409.68;;;9.68;81.04
70250;BME280;57644;48.416;-123.374;2022-08-21T09:13:06;101411.52;;;9.67;81.07
70250;BME280;57644;48.416;-123.374;2022-08-21T09:15:31;101411.02;;;9.64;81.09
70250;BME280;57644;48.416;-123.374;2022-08-21T09:18:15;101412.21;;;9.61;81.24
70250;BME280;57644;48.416;-123.374;2022-08-21T09:20:36;101421.24;;;9.59;81.27
70250;BME280;57644;48.416;-123.374;2022-08-21T09:23:10;101424.33;;;9.59;81.38
70250;BME280;57644;48.416;-123.374;2022-08-21T09:25:34;101421.87;;;9.57;81.48
70250;BME280;57644;48.416;-123.374;2022-08-21T09:28:01;101423.42;;;9.54;81.54
70250;BME280;57644;48.416;-123.374;2022-08-21T09:30:32;101427.28;;;9.49;81.77
70250;BME280;57644;48.416;-123.374;2022-08-21T09:33:01;101423.60;;;9.45;81.59
70250;BME280;57644;48.416;-123.374;2022-08-21T09:35:32;101425.76;;;9.37;81.49
70250;BME280;57644;48.416;-123.374;2022-08-21T09:38:05;101428.03;;;9.37;81.24
70250;BME280;57644;48.416;-123.374;2022-08-21T09:40:38;101428.05;;;9.34;81.06
70250;BME280;57644;48.416;-123.374;2022-08-21T09:43:16;101424.64;;;9.31;80.97
70250;BME280;57644;48.416;-123.374;2022-08-21T09:45:39;101423.56;;;9.29;80.83
70250;BME280;57644;48.416;-123.374;2022-08-21T09:48:09;101422.75;;;9.25;80.64
70250;BME280;57644;48.416;-123.374;2022-08-21T09:50:34;101425.32;;;9.22;80.82
70250;BME280;57644;48.416;-123.374;2022-08-21T09:53:16;101428.87;;;9.20;80.83
70250;BME280;57644;48.416;-123.374;2022-08-21T09:55:39;101429.60;;;9.13;81.07
70250;BME280;57644;48.416;-123.374;2022-08-21T09:58:05;101429.10;;;9.03;81.38
70250;BME280;57644;48.416;-123.374;2022-08-21T10:00:36;101429.63;;;9.00;81.68
70250;BME280;57644;48.416;-123.374;2022-08-21T10:03:11;101434.43;;;9.00;81.87
70250;BME280;57644;48.416;-123.374;2022-08-21T10:05:36;101436.50;;;8.90;82.35
70250;BME280;57644;48.416;-123.374;2022-08-21T10:10:37;101434.70;;;8.89;82.47
70250;BME280;57644;48.416;-123.374;2022-08-21T10:13:13;101436.54;;;8.92;82.55
70250;BME280;57644;48.416;-123.374;2022-08-21T10:15:45;101441.63;;;8.95;82.53
70250;BME280;57644;48.416;-123.374;2022-08-21T10:18:12;101444.91;;;8.99;82.38
70250;BME280;57644;48.416;-123.374;2022-08-21T10:20:43;101442.53;;;8.97;82.71
70250;BME280;57644;48.416;-123.374;2022-08-21T10:23:20;101439.69;;;9.01;82.84
70250;BME280;57644;48.416;-123.374;2022-08-21T10:25:42;101444.39;;;9.05;82.80
70250;BME280;57644;48.416;-123.374;2022-08-21T10:28:15;101447.49;;;9.07;82.81
70250;BME280;57644;48.416;-123.374;2022-08-21T10:30:46;101450.18;;;9.10;83.02
70250;BME280;57644;48.416;-123.374;2022-08-21T10:33:19;101450.12;;;9.12;82.94
70250;BME280;57644;48.416;-123.374;2022-08-21T10:40:45;101454.71;;;9.17;83.23
70250;BME280;57644;48.416;-123.374;2022-08-21T10:43:18;101457.75;;;9.16;83.18
70250;BME280;57644;48.416;-123.374;2022-08-21T10:45:50;101464.31;;;9.18;82.97
70250;BME280;57644;48.416;-123.374;2022-08-21T10:48:16;101467.15;;;8.97;82.80
70250;BME280;57644;48.416;-123.374;2022-08-21T10:50:47;101470.51;;;8.81;82.33
70250;BME280;57644;48.416;-123.374;2022-08-21T10:53:27;101473.12;;;8.72;81.93
70250;BME280;57644;48.416;-123.374;2022-08-21T10:55:48;101470.32;;;8.63;81.77
70250;BME280;57644;48.416;-123.374;2022-08-21T10:58:17;101467.81;;;8.42;82.62
70250;BME280;57644;48.416;-123.374;2022-08-21T11:00:46;101470.86;;;8.32;83.26
70250;BME280;57644;48.416;-123.374;2022-08-21T11:03:16;101473.07;;;8.32;83.61
70250;BME280;57644;48.416;-123.374;2022-08-21T11:05:48;101473.35;;;8.27;83.79
70250;BME280;57644;48.416;-123.374;2022-08-21T11:08:17;101473.27;;;8.27;83.48
70250;BME280;57644;48.416;-123.374;2022-08-21T11:10:48;101474.44;;;8.21;83.54
70250;BME280;57644;48.416;-123.374;2022-08-21T11:13:19;101484.91;;;8.09;84.07
70250;BME280;57644;48.416;-123.374;2022-08-21T11:15:50;101488.15;;;8.08;83.86
70250;BME280;57644;48.416;-123.374;2022-08-21T11:18:22;101487.24;;;8.00;83.92
70250;BME280;57644;48.416;-123.374;2022-08-21T11:20:51;101490.34;;;8.04;83.77
70250;BME280;57644;48.416;-123.374;2022-08-21T11:23:21;101488.14;;;7.99;83.83
70250;BME280;57644;48.416;-123.374;2022-08-21T11:25:50;101485.44;;;7.91;84.29
70250;BME280;57644;48.416;-123.374;2022-08-21T11:28:20;101484.20;;;7.89;84.52
70250;BME280;57644;48.416;-123.374;2022-08-21T11:30:55;101482.30;;;7.84;85.16
70250;BME280;57644;48.416;-123.374;2022-08-21T11:33:30;101484.49;;;7.90;85.08
70250;BME280;57644;48.416;-123.374;2022-08-21T11:35:50;101487.99;;;7.91;85.29
70250;BME280;57644;48.416;-123.374;2022-08-21T11:38:28;101491.12;;;7.89;85.34
70250;BME280;57644;48.416;-123.374;2022-08-21T11:41:01;101492.92;;;7.89;85.27
70250;BME280;57644;48.416;-123.374;2022-08-21T11:43:24;101489.23;;;7.88;85.22
70250;BME280;57644;48.416;-123.374;2022-08-21T11:45:54;101493.90;;;7.82;85.63
70250;BME280;57644;48.416;-123.374;2022-08-21T11:48:34;101499.17;;;7.64;86.99
70250;BME280;57644;48.416;-123.374;2022-08-21T11:50:52;101499.63;;;7.70;86.30
70250;BME280;57644;48.416;-123.374;2022-08-21T11:53:26;101500.30;;;7.68;86.75
70250;BME280;57644;48.416;-123.374;2022-08-21T11:55:55;101501.02;;;7.66;86.96
70250;BME280;57644;48.416;-123.374;2022-08-21T11:58:25;101498.90;;;7.69;86.47
70250;BME280;57644;48.416;-123.374;2022-08-21T12:00:55;101501.52;;;7.72;86.79
70250;BME280;57644;48.416;-123.374;2022-08-21T12:03:27;101502.15;;;7.77;86.29
70250;BME280;57644;48.416;-123.374;2022-08-21T12:05:56;101503.73;;;7.71;86.65
70250;BME280;57644;48.416;-123.374;2022-08-21T12:08:30;101502.80;;;7.72;86.45
70250;BME280;57644;48.416;-123.374;2022-08-21T12:11:01;101506.33;;;7.74;86.19
70250;BME280;57644;48.416;-123.374;2022-08-21T12:13:27;101506.83;;;7.67;86.72
70250;BME280;57644;48.416;-123.374;2022-08-21T12:16:05;101508.09;;;7.51;87.41
70250;BME280;57644;48.416;-123.374;2022-08-21T12:18:30;101505.37;;;7.49;87.30
70250;BME280;57644;48.416;-123.374;2022-08-21T12:21:03;101507.26;;;7.50;87.35
70250;BME280;57644;48.416;-123.374;2022-08-21T12:23:29;101506.62;;;7.53;87.37
70250;BME280;57644;48.416;-123.374;2022-08-21T12:26:09;101506.49;;;7.51;87.69
70250;BME280;57644;48.416;-123.374;2022-08-21T12:28:28;101503.35;;;7.48;87.94
70250;BME280;57644;48.416;-123.374;2022-08-21T12:30:58;101501.06;;;7.48;88.05
70250;BME280;57644;48.416;-123.374;2022-08-21T12:33:30;101499.87;;;7.54;87.42
70250;BME280;57644;48.416;-123.374;2022-08-21T12:36:06;101498.11;;;7.56;87.58
70250;BME280;57644;48.416;-123.374;2022-08-21T12:38:32;101501.45;;;7.57;87.45
70250;BME280;57644;48.416;-123.374;2022-08-21T12:41:02;101508.25;;;7.56;87.72
70250;BME280;57644;48.416;-123.374;2022-08-21T12:43:33;101512.09;;;7.56;88.14
70250;BME280;57644;48.416;-123.374;2022-08-21T12:46:00;101514.16;;;7.58;87.82
70250;BME280;57644;48.416;-123.374;2022-08-21T12:48:33;101522.06;;;7.61;87.71
70250;BME280;57644;48.416;-123.374;2022-08-21T12:51:09;101521.66;;;7.63;87.71
70250;BME280;57644;48.416;-123.374;2022-08-21T12:53:37;101523.85;;;7.66;87.66
70250;BME280;57644;48.416;-123.374;2022-08-21T12:56:02;101529.41;;;7.65;87.65
70250;BME280;57644;48.416;-123.374;2022-08-21T12:58:32;101530.63;;;7.67;88.10
70250;BME280;57644;48.416;-123.374;2022-08-21T13:01:04;101534.50;;;7.62;88.58
70250;BME280;57644;48.416;-123.374;2022-08-21T13:03:34;101534.94;;;7.59;89.20